sensor_id;sensor_type;location;lat;lon;timestamp;P1;durP1;ratioP1;P2;durP2;ratioP2
10890;SDS011;5498;50.928;11.598;2023-02-26T00:03:03;69.47;;;35.13;;
10890;SDS011;5498;50.928;11.598;2023-02-26T00:06:05;92.37;;;40.63;;
10890;SDS011;5498;50.928;11.598;2023-02-26T00:09:07;62.30;;;33.80;;
10890;SDS011;5498;50.928;11.598;2023-02-26T00:12:11;59.47;;;31.20;;
10890;SDS011;5498;50.928;11.598;2023-02-26T00:15:13;62.40;;;32.77;;
10890;SDS011;5498;50.928;11.598;2023-02-26T00:18:17;62.80;;;33.30;;
10890;SDS011;5498;50.928;11.598;2023-02-26T00:21:20;63.40;;;33.30;;
10890;SDS011;5498;50.928;11.598;2023-02-26T00:24:24;65.80;;;35.03;;
10890;SDS011;5498;50.928;11.598;2023-02-26T00:27:27;62.33;;;33.43;;
10890;SDS011;5498;50.928;11.598;2023-02-26T00:30:29;61.90;;;33.67;;
10890;SDS011;5498;50.928;11.598;2023-02-26T00:33:32;60.53;;;33.47;;
10890;SDS011;5498;50.928;11.598;2023-02-26T00:36:36;60.67;;;33.90;;
10890;SDS011;5498;50.928;11.598;2023-02-26T00:39:48;59.50;;;33.37;;
10890;SDS011;5498;50.928;11.598;2023-02-26T00:43:01;58.77;;;33.27;;
10890;SDS011;5498;50.928;11.598;2023-02-26T00:46:06;58.87;;;33.43;;
10890;SDS011;5498;50.928;11.598;2023-02-26T00:49:22;58.17;;;32.93;;
10890;SDS011;5498;50.928;11.598;2023-02-26T00:52:38;68.57;;;36.13;;
10890;SDS011;5498;50.928;11.598;2023-02-26T00:55:47;77.93;;;37.40;;
10890;SDS011;5498;50.928;11.598;2023-02-26T00:58:51;83.77;;;38.80;;
10890;SDS011;5498;50.928;11.598;2023-02-26T01:01:52;91.00;;;40.73;;
10890;SDS011;5498;50.928;11.598;2023-02-26T01:04:54;87.83;;;39.93;;
10890;SDS011;5498;50.928;11.598;2023-02-26T01:07:58;82.63;;;39.07;;
10890;SDS011;5498;50.928;11.598;2023-02-26T01:11:06;83.73;;;39.07;;
10890;SDS011;5498;50.928;11.598;2023-02-26T01:14:11;83.77;;;39.27;;
10890;SDS011;5498;50.928;11.598;2023-02-26T01:17:14;83.37;;;39.30;;
10890;SDS011;5498;50.928;11.598;2023-02-26T01:20:26;82.87;;;39.00;;
10890;SDS011;5498;50.928;11.598;2023-02-26T01:23:32;76.80;;;37.17;;
10890;SDS011;5498;50.928;11.598;2023-02-26T01:26:38;75.03;;;37.03;;
10890;SDS011;5498;50.928;11.598;2023-02-26T01:29:42;74.67;;;36.90;;
10890;SDS011;5498;50.928;11.598;2023-02-26T01:32:48;74.63;;;36.83;;
10890;SDS011;5498;50.928;11.598;2023-02-26T01:36:00;78.07;;;38.17;;
10890;SDS011;5498;50.928;11.598;2023-02-26T01:39:10;75.53;;;37.47;;
10890;SDS011;5498;50.928;11.598;2023-02-26T01:42:20;80.40;;;38.47;;
10890;SDS011;5498;50.928;11.598;2023-02-26T01:45:30;78.07;;;37.90;;
10890;SDS011;5498;50.928;11.598;2023-02-26T01:48:36;78.97;;;38.40;;
10890;SDS011;5498;50.928;11.598;2023-02-26T01:51:49;83.57;;;39.47;;
10890;SDS011;5498;50.928;11.598;2023-02-26T01:54:55;84.00;;;39.17;;
10890;SDS011;5498;50.928;11.598;2023-02-26T01:57:57;80.07;;;37.97;;
10890;SDS011;5498;50.928;11.598;2023-02-26T02:01:02;84.77;;;38.87;;
10890;SDS011;5498;50.928;11.598;2023-02-26T02:04:05;82.37;;;38.63;;
10890;SDS011;5498;50.928;11.598;2023-02-26T02:07:12;83.40;;;39.07;;
10890;SDS011;5498;50.928;11.598;2023-02-26T02:10:14;82.30;;;38.60;;
10890;SDS011;5498;50.928;11.598;2023-02-26T02:13:19;85.10;;;39.67;;
10890;SDS011;5498;50.928;11.598;2023-02-26T02:16:35;85.53;;;39.23;;
10890;SDS011;5498;50.928;11.598;2023-02-26T02:19:52;84.87;;;38.80;;
10890;SDS011;5498;50.928;11.598;2023-02-26T02:23:11;85.13;;;39.23;;
10890;SDS011;5498;50.928;11.598;2023-02-26T02:26:34;83.50;;;38.80;;
10890;SDS011;5498;50.928;11.598;2023-02-26T02:30:06;85.37;;;39.53;;
10890;SDS011;5498;50.928;11.598;2023-02-26T02:33:33;81.13;;;38.17;;
10890;SDS011;5498;50.928;11.598;2023-02-26T02:36:44;74.53;;;36.93;;
10890;SDS011;5498;50.928;11.598;2023-02-26T02:39:54;75.53;;;36.87;;
10890;SDS011;5498;50.928;11.598;2023-02-26T02:43:02;78.87;;;37.47;;
10890;SDS011;5498;50.928;11.598;2023-02-26T02:46:10;78.63;;;38.00;;
10890;SDS011;5498;50.928;11.598;2023-02-26T02:49:19;76.03;;;36.97;;
10890;SDS011;5498;50.928;11.598;2023-02-26T02:52:28;79.80;;;37.90;;
10890;SDS011;5498;50.928;11.598;2023-02-26T02:55:36;78.50;;;37.40;;
10890;SDS011;5498;50.928;11.598;2023-02-26T02:58:43;77.80;;;37.33;;
10890;SDS011;5498;50.928;11.598;2023-02-26T03:01:53;77.93;;;37.87;;
10890;SDS011;5498;50.928;11.598;2023-02-26T03:05:01;74.33;;;36.57;;
10890;SDS011;5498;50.928;11.598;2023-02-26T03:08:04;77.20;;;37.30;;
10890;SDS011;5498;50.928;11.598;2023-02-26T03:11:09;76.53;;;37.40;;
10890;SDS011;5498;50.928;11.598;2023-02-26T03:14:11;76.43;;;37.07;;
10890;SDS011;5498;50.928;11.598;2023-02-26T03:17:18;79.83;;;38.07;;
10890;SDS011;5498;50.928;11.598;2023-02-26T03:20:28;80.47;;;37.93;;
10890;SDS011;5498;50.928;11.598;2023-02-26T03:23:35;79.70;;;38.43;;
10890;SDS011;5498;50.928;11.598;2023-02-26T03:26:46;78.73;;;37.43;;
10890;SDS011;5498;50.928;11.598;2023-02-26T03:29:58;74.83;;;36.57;;
10890;SDS011;5498;50.928;11.598;2023-02-26T03:33:09;74.77;;;36.47;;
10890;SDS011;5498;50.928;11.598;2023-02-26T03:36:19;70.73;;;35.43;;
10890;SDS011;5498;50.928;11.598;2023-02-26T03:39:28;73.63;;;36.53;;
10890;SDS011;5498;50.928;11.598;2023-02-26T03:42:37;74.90;;;36.77;;
10890;SDS011;5498;50.928;11.598;2023-02-26T03:45:45;71.50;;;35.67;;
10890;SDS011;5498;50.928;11.598;2023-02-26T03:48:51;73.27;;;36.40;;
10890;SDS011;5498;50.928;11.598;2023-02-26T03:51:56;76.43;;;37.10;;
10890;SDS011;5498;50.928;11.598;2023-02-26T03:55:01;84.30;;;38.53;;
10890;SDS011;5498;50.928;11.598;2023-02-26T03:58:08;79.60;;;37.23;;
10890;SDS011;5498;50.928;11.598;2023-02-26T04:01:10;79.63;;;37.47;;
10890;SDS011;5498;50.928;11.598;2023-02-26T04:04:18;98.33;;;40.53;;
10890;SDS011;5498;50.928;11.598;2023-02-26T04:07:28;95.13;;;40.50;;
10890;SDS011;5498;50.928;11.598;2023-02-26T04:10:32;93.63;;;40.07;;
10890;SDS011;5498;50.928;11.598;2023-02-26T04:13:37;98.47;;;40.93;;
10890;SDS011;5498;50.928;11.598;2023-02-26T04:16:39;84.27;;;38.20;;
10890;SDS011;5498;50.928;11.598;2023-02-26T04:19:42;89.97;;;39.57;;
10890;SDS011;5498;50.928;11.598;2023-02-26T04:22:45;83.83;;;38.27;;
10890;SDS011;5498;50.928;11.598;2023-02-26T04:25:47;83.70;;;38.00;;
10890;SDS011;5498;50.928;11.598;2023-02-26T04:28:49;81.30;;;37.63;;
10890;SDS011;5498;50.928;11.598;2023-02-26T04:31:51;79.30;;;37.40;;
10890;SDS011;5498;50.928;11.598;2023-02-26T04:34:53;83.07;;;38.20;;
10890;SDS011;5498;50.928;11.598;2023-02-26T04:37:56;81.07;;;37.60;;
10890;SDS011;5498;50.928;11.598;2023-02-26T04:40:58;81.43;;;37.30;;
10890;SDS011;5498;50.928;11.598;2023-02-26T04:44:00;80.90;;;37.03;;
10890;SDS011;5498;50.928;11.598;2023-02-26T04:47:03;79.93;;;37.37;;
10890;SDS011;5498;50.928;11.598;2023-02-26T04:50:05;79.70;;;36.90;;
10890;SDS011;5498;50.928;11.598;2023-02-26T04:53:09;79.67;;;37.77;;
10890;SDS011;5498;50.928;11.598;2023-02-26T04:56:11;78.30;;;36.13;;
10890;SDS011;5498;50.928;11.598;2023-02-26T04:59:13;77.90;;;36.43;;
10890;SDS011;5498;50.928;11.598;2023-02-26T05:02:15;82.43;;;37.53;;
10890;SDS011;5498;50.928;11.598;2023-02-26T05:05:19;84.20;;;38.13;;
10890;SDS011;5498;50.928;11.598;2023-02-26T05:08:22;89.00;;;38.63;;
10890;SDS011;5498;50.928;11.598;2023-02-26T05:11:24;86.83;;;38.50;;
10890;SDS011;5498;50.928;11.598;2023-02-26T05:14:26;90.83;;;39.87;;
10890;SDS011;5498;50.928;11.598;2023-02-26T05:17:28;88.37;;;38.63;;
10890;SDS011;5498;50.928;11.598;2023-02-26T05:20:30;102.17;;;41.10;;
10890;SDS011;5498;50.928;11.598;2023-02-26T05:23:33;110.63;;;42.43;;
10890;SDS011;5498;50.928;11.598;2023-02-26T05:26:35;115.67;;;43.07;;
10890;SDS011;5498;50.928;11.598;2023-02-26T05:29:37;114.17;;;42.87;;
10890;SDS011;5498;50.928;11.598;2023-02-26T05:32:41;110.10;;;42.47;;
10890;SDS011;5498;50.928;11.598;2023-02-26T05:35:44;106.13;;;41.23;;
10890;SDS011;5498;50.928;11.598;2023-02-26T05:38:49;104.63;;;41.57;;
10890;SDS011;5498;50.928;11.598;2023-02-26T05:41:52;103.40;;;40.90;;
10890;SDS011;5498;50.928;11.598;2023-02-26T05:44:54;120.57;;;45.37;;
10890;SDS011;5498;50.928;11.598;2023-02-26T05:47:56;117.63;;;43.43;;
10890;SDS011;5498;50.928;11.598;2023-02-26T05:50:58;116.93;;;43.33;;
10890;SDS011;5498;50.928;11.598;2023-02-26T05:54:01;117.53;;;43.47;;
10890;SDS011;5498;50.928;11.598;2023-02-26T05:57:03;113.87;;;42.97;;
10890;SDS011;5498;50.928;11.598;2023-02-26T06:00:06;113.60;;;42.90;;
10890;SDS011;5498;50.928;11.598;2023-02-26T06:03:10;120.00;;;44.03;;
10890;SDS011;5498;50.928;11.598;2023-02-26T06:06:12;118.73;;;43.57;;
10890;SDS011;5498;50.928;11.598;2023-02-26T06:09:18;121.67;;;44.23;;
10890;SDS011;5498;50.928;11.598;2023-02-26T06:12:21;124.83;;;43.97;;
10890;SDS011;5498;50.928;11.598;2023-02-26T06:15:23;121.17;;;43.27;;
10890;SDS011;5498;50.928;11.598;2023-02-26T06:18:24;118.20;;;43.23;;
10890;SDS011;5498;50.928;11.598;2023-02-26T06:21:27;111.00;;;41.83;;
10890;SDS011;5498;50.928;11.598;2023-02-26T06:24:30;111.23;;;41.80;;
10890;SDS011;5498;50.928;11.598;2023-02-26T06:27:32;113.27;;;41.57;;
10890;SDS011;5498;50.928;11.598;2023-02-26T06:30:33;148.20;;;55.87;;
10890;SDS011;5498;50.928;11.598;2023-02-26T06:33:35;156.47;;;59.83;;
10890;SDS011;5498;50.928;11.598;2023-02-26T06:36:37;166.13;;;64.23;;
10890;SDS011;5498;50.928;11.598;2023-02-26T06:39:41;161.00;;;62.67;;
10890;SDS011;5498;50.928;11.598;2023-02-26T06:42:43;159.00;;;60.90;;
10890;SDS011;5498;50.928;11.598;2023-02-26T06:45:44;163.27;;;63.10;;
10890;SDS011;5498;50.928;11.598;2023-02-26T06:48:46;162.67;;;63.30;;
10890;SDS011;5498;50.928;11.598;2023-02-26T06:51:48;160.90;;;62.53;;
10890;SDS011;5498;50.928;11.598;2023-02-26T06:54:51;166.37;;;65.20;;
10890;SDS011;5498;50.928;11.598;2023-02-26T06:57:53;159.23;;;60.93;;
10890;SDS011;5498;50.928;11.598;2023-02-26T07:00:57;158.70;;;58.43;;
10890;SDS011;5498;50.928;11.598;2023-02-26T07:04:03;160.17;;;59.07;;
10890;SDS011;5498;50.928;11.598;2023-02-26T07:07:05;157.80;;;57.80;;
10890;SDS011;5498;50.928;11.598;2023-02-26T07:10:09;153.93;;;52.80;;
10890;SDS011;5498;50.928;11.598;2023-02-26T07:13:12;148.90;;;49.83;;
10890;SDS011;5498;50.928;11.598;2023-02-26T07:16:14;146.50;;;47.83;;
10890;SDS011;5498;50.928;11.598;2023-02-26T07:19:16;143.43;;;47.87;;
10890;SDS011;5498;50.928;11.598;2023-02-26T07:22:18;139.90;;;47.47;;
10890;SDS011;5498;50.928;11.598;2023-02-26T07:25:22;140.97;;;46.97;;
10890;SDS011;5498;50.928;11.598;2023-02-26T07:28:24;135.67;;;45.50;;
10890;SDS011;5498;50.928;11.598;2023-02-26T07:31:26;143.53;;;47.03;;
10890;SDS011;5498;50.928;11.598;2023-02-26T07:34:28;143.60;;;46.83;;
10890;SDS011;5498;50.928;11.598;2023-02-26T07:37:31;139.90;;;46.13;;
10890;SDS011;5498;50.928;11.598;2023-02-26T07:40:34;142.33;;;46.47;;
10890;SDS011;5498;50.928;11.598;2023-02-26T07:43:36;141.33;;;46.33;;
10890;SDS011;5498;50.928;11.598;2023-02-26T07:46:37;138.67;;;45.80;;
10890;SDS011;5498;50.928;11.598;2023-02-26T07:49:40;145.70;;;46.73;;
10890;SDS011;5498;50.928;11.598;2023-02-26T07:52:41;141.17;;;45.77;;
10890;SDS011;5498;50.928;11.598;2023-02-26T07:55:45;142.83;;;46.80;;
10890;SDS011;5498;50.928;11.598;2023-02-26T07:58:47;141.13;;;46.50;;
10890;SDS011;5498;50.928;11.598;2023-02-26T08:01:49;139.87;;;46.83;;
10890;SDS011;5498;50.928;11.598;2023-02-26T08:04:50;138.57;;;46.43;;
10890;SDS011;5498;50.928;11.598;2023-02-26T08:07:52;138.90;;;46.37;;
10890;SDS011;5498;50.928;11.598;2023-02-26T08:10:55;140.73;;;47.13;;
10890;SDS011;5498;50.928;11.598;2023-02-26T08:13:59;143.57;;;48.13;;
10890;SDS011;5498;50.928;11.598;2023-02-26T08:17:02;154.13;;;61.07;;
10890;SDS011;5498;50.928;11.598;2023-02-26T08:20:06;144.13;;;49.77;;
10890;SDS011;5498;50.928;11.598;2023-02-26T08:23:09;141.13;;;48.67;;
10890;SDS011;5498;50.928;11.598;2023-02-26T08:26:13;139.53;;;48.60;;
10890;SDS011;5498;50.928;11.598;2023-02-26T08:29:15;137.67;;;48.23;;
10890;SDS011;5498;50.928;11.598;2023-02-26T08:32:17;137.13;;;48.27;;
10890;SDS011;5498;50.928;11.598;2023-02-26T08:35:21;132.60;;;47.13;;
10890;SDS011;5498;50.928;11.598;2023-02-26T08:38:23;133.30;;;48.20;;
10890;SDS011;5498;50.928;11.598;2023-02-26T08:41:26;141.37;;;52.90;;
10890;SDS011;5498;50.928;11.598;2023-02-26T08:44:31;139.80;;;51.97;;
10890;SDS011;5498;50.928;11.598;2023-02-26T08:47:33;139.97;;;53.70;;
10890;SDS011;5498;50.928;11.598;2023-02-26T08:50:35;142.30;;;55.57;;
10890;SDS011;5498;50.928;11.598;2023-02-26T08:53:41;134.47;;;49.80;;
10890;SDS011;5498;50.928;11.598;2023-02-26T08:56:45;138.07;;;54.23;;
10890;SDS011;5498;50.928;11.598;2023-02-26T08:59:47;138.07;;;53.73;;
10890;SDS011;5498;50.928;11.598;2023-02-26T09:02:49;134.77;;;51.30;;
10890;SDS011;5498;50.928;11.598;2023-02-26T09:05:51;134.10;;;50.13;;
10890;SDS011;5498;50.928;11.598;2023-02-26T09:08:53;134.67;;;50.90;;
10890;SDS011;5498;50.928;11.598;2023-02-26T09:11:56;135.07;;;51.70;;
10890;SDS011;5498;50.928;11.598;2023-02-26T09:14:58;131.67;;;50.30;;
10890;SDS011;5498;50.928;11.598;2023-02-26T09:18:04;131.97;;;50.27;;
10890;SDS011;5498;50.928;11.598;2023-02-26T09:21:06;131.67;;;50.67;;
10890;SDS011;5498;50.928;11.598;2023-02-26T09:24:08;132.77;;;51.00;;
10890;SDS011;5498;50.928;11.598;2023-02-26T09:27:12;132.67;;;51.30;;
10890;SDS011;5498;50.928;11.598;2023-02-26T09:30:14;132.97;;;50.77;;
10890;SDS011;5498;50.928;11.598;2023-02-26T09:33:16;132.90;;;50.97;;
10890;SDS011;5498;50.928;11.598;2023-02-26T09:36:18;136.77;;;53.50;;
10890;SDS011;5498;50.928;11.598;2023-02-26T09:39:21;134.10;;;51.40;;
10890;SDS011;5498;50.928;11.598;2023-02-26T09:42:28;132.27;;;49.57;;
10890;SDS011;5498;50.928;11.598;2023-02-26T09:45:43;129.33;;;48.60;;
10890;SDS011;5498;50.928;11.598;2023-02-26T09:48:47;131.60;;;49.80;;
10890;SDS011;5498;50.928;11.598;2023-02-26T09:51:54;131.73;;;49.90;;
10890;SDS011;5498;50.928;11.598;2023-02-26T09:55:04;129.23;;;49.07;;
10890;SDS011;5498;50.928;11.598;2023-02-26T09:58:15;128.23;;;49.00;;
10890;SDS011;5498;50.928;11.598;2023-02-26T10:01:22;121.97;;;46.63;;
10890;SDS011;5498;50.928;11.598;2023-02-26T10:04:38;122.60;;;47.33;;
10890;SDS011;5498;50.928;11.598;2023-02-26T10:07:53;126.80;;;49.10;;
10890;SDS011;5498;50.928;11.598;2023-02-26T10:11:01;120.27;;;46.30;;
10890;SDS011;5498;50.928;11.598;2023-02-26T10:14:10;118.10;;;45.07;;
10890;SDS011;5498;50.928;11.598;2023-02-26T10:17:17;124.93;;;47.90;;
10890;SDS011;5498;50.928;11.598;2023-02-26T10:20:26;125.13;;;47.67;;
10890;SDS011;5498;50.928;11.598;2023-02-26T10:23:34;125.90;;;47.27;;
10890;SDS011;5498;50.928;11.598;2023-02-26T10:26:42;128.33;;;48.27;;
10890;SDS011;5498;50.928;11.598;2023-02-26T10:29:50;127.00;;;47.53;;
10890;SDS011;5498;50.928;11.598;2023-02-26T10:33:03;128.83;;;48.07;;
10890;SDS011;5498;50.928;11.598;2023-02-26T10:36:16;127.47;;;48.50;;
10890;SDS011;5498;50.928;11.598;2023-02-26T10:39:26;127.70;;;48.07;;
10890;SDS011;5498;50.928;11.598;2023-02-26T10:42:35;124.10;;;47.27;;
10890;SDS011;5498;50.928;11.598;2023-02-26T10:45:46;129.50;;;49.03;;
10890;SDS011;5498;50.928;11.598;2023-02-26T10:49:13;129.20;;;48.47;;
10890;SDS011;5498;50.928;11.598;2023-02-26T10:52:42;126.83;;;48.57;;
10890;SDS011;5498;50.928;11.598;2023-02-26T10:55:47;122.57;;;47.03;;
10890;SDS011;5498;50.928;11.598;2023-02-26T10:58:55;123.93;;;48.03;;
10890;SDS011;5498;50.928;11.598;2023-02-26T11:01:59;122.40;;;48.07;;
10890;SDS011;5498;50.928;11.598;2023-02-26T11:05:01;122.27;;;48.20;;
10890;SDS011;5498;50.928;11.598;2023-02-26T11:08:08;125.37;;;49.10;;
10890;SDS011;5498;50.928;11.598;2023-02-26T11:11:35;125.03;;;49.43;;
10890;SDS011;5498;50.928;11.598;2023-02-26T11:14:42;125.73;;;49.70;;
10890;SDS011;5498;50.928;11.598;2023-02-26T11:17:53;124.70;;;49.60;;
10890;SDS011;5498;50.928;11.598;2023-02-26T11:20:58;125.57;;;50.37;;
10890;SDS011;5498;50.928;11.598;2023-02-26T11:24:02;120.10;;;48.23;;
10890;SDS011;5498;50.928;11.598;2023-02-26T11:27:10;120.87;;;48.40;;
10890;SDS011;5498;50.928;11.598;2023-02-26T11:30:15;121.50;;;49.57;;
10890;SDS011;5498;50.928;11.598;2023-02-26T11:33:22;124.57;;;52.23;;
10890;SDS011;5498;50.928;11.598;2023-02-26T11:36:29;122.37;;;51.17;;
10890;SDS011;5498;50.928;11.598;2023-02-26T11:39:33;124.90;;;53.20;;
10890;SDS011;5498;50.928;11.598;2023-02-26T11:42:40;115.77;;;48.53;;
10890;SDS011;5498;50.928;11.598;2023-02-26T11:45:51;122.87;;;52.63;;
10890;SDS011;5498;50.928;11.598;2023-02-26T11:48:59;118.53;;;50.30;;
10890;SDS011;5498;50.928;11.598;2023-02-26T11:52:04;119.33;;;51.37;;
10890;SDS011;5498;50.928;11.598;2023-02-26T11:55:20;125.13;;;55.33;;
10890;SDS011;5498;50.928;11.598;2023-02-26T11:58:28;120.43;;;52.57;;
10890;SDS011;5498;50.928;11.598;2023-02-26T12:01:35;120.67;;;51.87;;
10890;SDS011;5498;50.928;11.598;2023-02-26T12:04:42;117.30;;;50.53;;
10890;SDS011;5498;50.928;11.598;2023-02-26T12:07:46;114.83;;;48.90;;
10890;SDS011;5498;50.928;11.598;2023-02-26T12:10:52;119.73;;;51.53;;
10890;SDS011;5498;50.928;11.598;2023-02-26T12:14:25;120.00;;;51.93;;
10890;SDS011;5498;50.928;11.598;2023-02-26T12:17:58;118.47;;;51.47;;
10890;SDS011;5498;50.928;11.598;2023-02-26T12:21:19;119.10;;;51.73;;
10890;SDS011;5498;50.928;11.598;2023-02-26T12:24:47;117.77;;;50.70;;
10890;SDS011;5498;50.928;11.598;2023-02-26T12:28:20;117.17;;;51.07;;
10890;SDS011;5498;50.928;11.598;2023-02-26T12:31:44;115.33;;;49.40;;
10890;SDS011;5498;50.928;11.598;2023-02-26T12:35:13;114.73;;;49.47;;
10890;SDS011;5498;50.928;11.598;2023-02-26T12:38:33;114.23;;;49.40;;
10890;SDS011;5498;50.928;11.598;2023-02-26T12:41:47;113.47;;;49.07;;
10890;SDS011;5498;50.928;11.598;2023-02-26T12:45:12;113.63;;;48.93;;
10890;SDS011;5498;50.928;11.598;2023-02-26T12:52:12;109.87;;;46.93;;
10890;SDS011;5498;50.928;11.598;2023-02-26T12:55:49;109.83;;;47.07;;
10890;SDS011;5498;50.928;11.598;2023-02-26T12:59:14;110.30;;;46.93;;
10890;SDS011;5498;50.928;11.598;2023-02-26T13:02:31;112.70;;;47.73;;
10890;SDS011;5498;50.928;11.598;2023-02-26T13:06:11;113.37;;;48.30;;
10890;SDS011;5498;50.928;11.598;2023-02-26T13:09:32;113.60;;;48.10;;
10890;SDS011;5498;50.928;11.598;2023-02-26T13:12:45;111.63;;;47.43;;
10890;SDS011;5498;50.928;11.598;2023-02-26T13:15:55;112.67;;;47.70;;
10890;SDS011;5498;50.928;11.598;2023-02-26T13:19:12;111.03;;;46.80;;
10890;SDS011;5498;50.928;11.598;2023-02-26T13:22:27;112.17;;;47.03;;
10890;SDS011;5498;50.928;11.598;2023-02-26T13:25:34;115.77;;;48.90;;
10890;SDS011;5498;50.928;11.598;2023-02-26T13:28:53;114.93;;;48.57;;
10890;SDS011;5498;50.928;11.598;2023-02-26T13:31:59;114.50;;;48.33;;
10890;SDS011;5498;50.928;11.598;2023-02-26T13:35:06;116.03;;;48.67;;
10890;SDS011;5498;50.928;11.598;2023-02-26T13:38:21;115.70;;;49.10;;
10890;SDS011;5498;50.928;11.598;2023-02-26T13:41:37;114.83;;;48.23;;
10890;SDS011;5498;50.928;11.598;2023-02-26T13:44:50;115.33;;;48.37;;
10890;SDS011;5498;50.928;11.598;2023-02-26T13:48:08;115.63;;;48.57;;
10890;SDS011;5498;50.928;11.598;2023-02-26T13:51:23;116.43;;;48.90;;
10890;SDS011;5498;50.928;11.598;2023-02-26T13:54:41;116.23;;;48.90;;
10890;SDS011;5498;50.928;11.598;2023-02-26T13:57:46;116.60;;;48.60;;
10890;SDS011;5498;50.928;11.598;2023-02-26T14:00:57;115.97;;;48.33;;
10890;SDS011;5498;50.928;11.598;2023-02-26T14:04:06;115.53;;;47.87;;
10890;SDS011;5498;50.928;11.598;2023-02-26T14:10:57;137.53;;;59.70;;
10890;SDS011;5498;50.928;11.598;2023-02-26T14:14:10;119.20;;;49.03;;
10890;SDS011;5498;50.928;11.598;2023-02-26T14:17:29;118.23;;;49.70;;
10890;SDS011;5498;50.928;11.598;2023-02-26T14:20:38;116.80;;;48.37;;
10890;SDS011;5498;50.928;11.598;2023-02-26T14:23:40;115.40;;;48.10;;
10890;SDS011;5498;50.928;11.598;2023-02-26T14:26:47;117.97;;;50.13;;
10890;SDS011;5498;50.928;11.598;2023-02-26T14:29:57;119.93;;;50.03;;
10890;SDS011;5498;50.928;11.598;2023-02-26T14:33:12;113.90;;;47.73;;
10890;SDS011;5498;50.928;11.598;2023-02-26T14:36:20;117.77;;;49.80;;
10890;SDS011;5498;50.928;11.598;2023-02-26T14:39:33;115.77;;;48.73;;
10890;SDS011;5498;50.928;11.598;2023-02-26T14:42:40;114.73;;;48.37;;
10890;SDS011;5498;50.928;11.598;2023-02-26T14:45:45;115.87;;;48.93;;
10890;SDS011;5498;50.928;11.598;2023-02-26T14:48:49;114.50;;;48.37;;
10890;SDS011;5498;50.928;11.598;2023-02-26T14:52:00;113.47;;;48.00;;
10890;SDS011;5498;50.928;11.598;2023-02-26T14:55:41;111.07;;;47.13;;
10890;SDS011;5498;50.928;11.598;2023-02-26T14:58:54;111.20;;;47.03;;
10890;SDS011;5498;50.928;11.598;2023-02-26T15:02:17;109.73;;;46.60;;
10890;SDS011;5498;50.928;11.598;2023-02-26T15:05:30;110.83;;;46.93;;
10890;SDS011;5498;50.928;11.598;2023-02-26T15:08:45;108.80;;;46.20;;
10890;SDS011;5498;50.928;11.598;2023-02-26T15:12:04;107.10;;;45.43;;
10890;SDS011;5498;50.928;11.598;2023-02-26T15:15:22;109.00;;;46.17;;
10890;SDS011;5498;50.928;11.598;2023-02-26T15:18:41;109.97;;;46.73;;
10890;SDS011;5498;50.928;11.598;2023-02-26T15:22:02;111.40;;;47.10;;
10890;SDS011;5498;50.928;11.598;2023-02-26T15:25:28;107.97;;;45.97;;
10890;SDS011;5498;50.928;11.598;2023-02-26T15:28:35;110.13;;;46.67;;
10890;SDS011;5498;50.928;11.598;2023-02-26T15:31:41;109.67;;;45.87;;
10890;SDS011;5498;50.928;11.598;2023-02-26T15:34:47;109.43;;;45.87;;
10890;SDS011;5498;50.928;11.598;2023-02-26T15:37:58;109.60;;;45.70;;
10890;SDS011;5498;50.928;11.598;2023-02-26T15:41:03;109.97;;;45.60;;
10890;SDS011;5498;50.928;11.598;2023-02-26T15:44:06;106.03;;;44.23;;
10890;SDS011;5498;50.928;11.598;2023-02-26T15:47:13;110.17;;;45.77;;
10890;SDS011;5498;50.928;11.598;2023-02-26T15:50:25;105.53;;;44.20;;
10890;SDS011;5498;50.928;11.598;2023-02-26T15:53:31;107.53;;;45.17;;
10890;SDS011;5498;50.928;11.598;2023-02-26T15:56:36;106.43;;;44.87;;
10890;SDS011;5498;50.928;11.598;2023-02-26T15:59:42;116.13;;;47.60;;
10890;SDS011;5498;50.928;11.598;2023-02-26T16:02:47;117.53;;;47.33;;
10890;SDS011;5498;50.928;11.598;2023-02-26T16:05:49;116.60;;;47.60;;
10890;SDS011;5498;50.928;11.598;2023-02-26T16:08:55;111.30;;;45.80;;
10890;SDS011;5498;50.928;11.598;2023-02-26T16:11:59;101.50;;;43.43;;
10890;SDS011;5498;50.928;11.598;2023-02-26T16:15:10;102.50;;;43.87;;
10890;SDS011;5498;50.928;11.598;2023-02-26T16:18:16;102.17;;;44.33;;
10890;SDS011;5498;50.928;11.598;2023-02-26T16:21:24;103.53;;;44.37;;
10890;SDS011;5498;50.928;11.598;2023-02-26T16:24:31;101.97;;;43.77;;
10890;SDS011;5498;50.928;11.598;2023-02-26T16:27:34;102.10;;;43.53;;
10890;SDS011;5498;50.928;11.598;2023-02-26T16:30:36;104.83;;;43.93;;
10890;SDS011;5498;50.928;11.598;2023-02-26T16:33:41;104.67;;;44.10;;
10890;SDS011;5498;50.928;11.598;2023-02-26T16:36:56;104.93;;;44.37;;
10890;SDS011;5498;50.928;11.598;2023-02-26T16:40:06;117.50;;;47.97;;
10890;SDS011;5498;50.928;11.598;2023-02-26T16:46:53;109.50;;;45.80;;
10890;SDS011;5498;50.928;11.598;2023-02-26T16:49:55;110.00;;;46.07;;
10890;SDS011;5498;50.928;11.598;2023-02-26T16:52:58;108.37;;;45.53;;
10890;SDS011;5498;50.928;11.598;2023-02-26T16:56:08;109.67;;;45.90;;
10890;SDS011;5498;50.928;11.598;2023-02-26T16:59:16;108.50;;;45.53;;
10890;SDS011;5498;50.928;11.598;2023-02-26T17:02:21;111.53;;;46.27;;
10890;SDS011;5498;50.928;11.598;2023-02-26T17:05:28;110.10;;;45.03;;
10890;SDS011;5498;50.928;11.598;2023-02-26T17:08:34;110.10;;;46.20;;
10890;SDS011;5498;50.928;11.598;2023-02-26T17:11:50;111.63;;;46.30;;
10890;SDS011;5498;50.928;11.598;2023-02-26T17:15:11;109.97;;;45.73;;
10890;SDS011;5498;50.928;11.598;2023-02-26T17:18:19;108.37;;;45.97;;
10890;SDS011;5498;50.928;11.598;2023-02-26T17:21:21;107.77;;;45.70;;
10890;SDS011;5498;50.928;11.598;2023-02-26T17:24:25;107.63;;;45.50;;
10890;SDS011;5498;50.928;11.598;2023-02-26T17:27:34;106.50;;;45.00;;
10890;SDS011;5498;50.928;11.598;2023-02-26T17:30:37;104.87;;;44.63;;
10890;SDS011;5498;50.928;11.598;2023-02-26T17:33:40;105.57;;;44.67;;
10890;SDS011;5498;50.928;11.598;2023-02-26T17:36:43;105.43;;;44.57;;
10890;SDS011;5498;50.928;11.598;2023-02-26T17:39:45;105.03;;;44.40;;
10890;SDS011;5498;50.928;11.598;2023-02-26T17:42:48;101.70;;;43.27;;
10890;SDS011;5498;50.928;11.598;2023-02-26T17:45:51;102.13;;;43.37;;
10890;SDS011;5498;50.928;11.598;2023-02-26T17:48:54;103.30;;;43.77;;
10890;SDS011;5498;50.928;11.598;2023-02-26T17:51:56;104.30;;;44.17;;
10890;SDS011;5498;50.928;11.598;2023-02-26T17:54:58;102.70;;;43.47;;
10890;SDS011;5498;50.928;11.598;2023-02-26T17:58:01;104.67;;;44.07;;
10890;SDS011;5498;50.928;11.598;2023-02-26T18:01:03;105.53;;;44.43;;
10890;SDS011;5498;50.928;11.598;2023-02-26T18:04:05;104.67;;;43.77;;
10890;SDS011;5498;50.928;11.598;2023-02-26T18:07:08;106.23;;;44.80;;
10890;SDS011;5498;50.928;11.598;2023-02-26T18:10:16;104.43;;;44.17;;
10890;SDS011;5498;50.928;11.598;2023-02-26T18:13:22;105.10;;;44.57;;
10890;SDS011;5498;50.928;11.598;2023-02-26T18:16:27;103.50;;;43.80;;
10890;SDS011;5498;50.928;11.598;2023-02-26T18:19:33;103.67;;;43.67;;